createdAt,value
2022-08-29T00:00:36.441Z,10.95
2022-08-29T00:03:09.283Z,9.60
2022-08-29T00:05:39.820Z,14.82
2022-08-29T00:08:07.815Z,11.15
2022-08-29T00:10:37.264Z,10.60
2022-08-29T00:13:09.206Z,10.48
2022-08-29T00:15:44.359Z,12.27
2022-08-29T00:18:17.225Z,10.07
2022-08-29T00:20:46.079Z,12.27
2022-08-29T00:23:14.380Z,11.20
2022-08-29T00:25:42.437Z,8.93
2022-08-29T00:28:10.360Z,12.20
2022-08-29T00:30:38.077Z,11.30
2022-08-29T00:33:05.683Z,10.13
2022-08-29T00:35:37.518Z,9.43
2022-08-29T00:38:10.620Z,9.10
2022-08-29T00:40:51.176Z,10.70
2022-08-29T00:43:25.522Z,8.85
2022-08-29T00:46:20.765Z,10.60
2022-08-29T00:48:57.527Z,8.60
2022-08-29T00:51:25.341Z,10.90
2022-08-29T00:54:02.106Z,12.60
2022-08-29T00:56:30.907Z,11.48
2022-08-29T00:59:13.008Z,10.10
2022-08-29T01:01:40.977Z,8.10
2022-08-29T01:04:09.892Z,10.77
2022-08-29T01:06:43.948Z,8.95
2022-08-29T01:09:11.945Z,9.60
2022-08-29T01:14:57.833Z,8.77
2022-08-29T01:17:33.235Z,9.38
2022-08-29T01:20:26.059Z,9.30
2022-08-29T01:23:03.515Z,8.52
2022-08-29T01:25:37.718Z,8.75
2022-08-29T01:28:29.249Z,9.57
2022-08-29T01:31:37.844Z,9.88
2022-08-29T01:34:12.347Z,10.60
2022-08-29T01:36:58.131Z,9.40
2022-08-29T01:39:31.737Z,8.52
2022-08-29T01:42:04.025Z,9.23
2022-08-29T01:44:32.645Z,9.20
2022-08-29T01:47:03.484Z,8.45
2022-08-29T01:49:38.448Z,7.47
2022-08-29T01:52:09.136Z,9.38
2022-08-29T01:54:36.940Z,11.95
2022-08-29T01:57:04.366Z,12.50
2022-08-29T01:59:33.593Z,8.63
2022-08-29T02:04:50.725Z,7.57
2022-08-29T02:07:21.359Z,8.75
2022-08-29T02:09:48.994Z,12.45
2022-08-29T02:12:18.157Z,8.57
2022-08-29T02:14:47.657Z,8.80
2022-08-29T02:17:15.520Z,11.23
2022-08-29T02:19:43.729Z,8.95
2022-08-29T02:22:11.870Z,12.32
2022-08-29T02:24:40.121Z,9.40
2022-08-29T02:27:09.414Z,8.82
2022-08-29T02:29:38.405Z,8.35
2022-08-29T02:32:12.746Z,8.13
2022-08-29T02:34:47.537Z,9.65
2022-08-29T02:37:16.581Z,8.45
2022-08-29T02:39:43.829Z,8.40
2022-08-29T02:42:11.075Z,11.15
2022-08-29T02:44:38.783Z,8.93
2022-08-29T02:47:09.465Z,8.88
2022-08-29T02:49:39.848Z,9.13
2022-08-29T02:52:08.942Z,8.55
2022-08-29T02:54:36.417Z,7.40
2022-08-29T02:57:23.934Z,7.85
2022-08-29T02:59:52.328Z,7.50
2022-08-29T03:02:21.821Z,9.25
2022-08-29T03:04:49.920Z,8.27
2022-08-29T03:07:17.544Z,8.32
2022-08-29T03:09:45.314Z,9.88
2022-08-29T03:12:12.718Z,10.75
2022-08-29T03:14:39.962Z,11.90
2022-08-29T03:17:07.427Z,9.15
2022-08-29T03:19:37.291Z,9.88
2022-08-29T03:22:05.039Z,11.50
2022-08-29T03:24:34.933Z,12.25
2022-08-29T03:27:02.141Z,10.77
2022-08-29T03:29:29.634Z,10.18
2022-08-29T03:31:59.197Z,10.68
2022-08-29T03:36:55.956Z,9.82
2022-08-29T03:39:23.356Z,10.35
2022-08-29T03:41:51.076Z,12.40
2022-08-29T03:44:18.711Z,11.25
2022-08-29T03:46:47.708Z,10.73
2022-08-29T03:49:18.276Z,9.95
2022-08-29T03:51:45.690Z,11.85
2022-08-29T03:54:13.629Z,10.35
2022-08-29T03:56:41.005Z,10.57
2022-08-29T03:59:09.152Z,9.95
2022-08-29T04:01:36.650Z,14.20
2022-08-29T04:04:07.071Z,8.65
2022-08-29T04:06:34.814Z,9.00
2022-08-29T04:09:03.015Z,8.52
2022-08-29T04:11:30.628Z,6.80
2022-08-29T04:13:59.215Z,11.18
2022-08-29T04:16:30.471Z,11.68
2022-08-29T04:18:59.528Z,11.75
2022-08-29T04:21:27.363Z,10.77
2022-08-29T04:23:56.590Z,10.75
2022-08-29T04:26:39.455Z,11.32
2022-08-29T04:29:12.321Z,6.80
2022-08-29T04:31:42.545Z,9.60
2022-08-29T04:34:13.128Z,7.68
2022-08-29T04:36:43.814Z,7.55
2022-08-29T04:39:13.349Z,9.60
2022-08-29T04:44:12.472Z,6.20
2022-08-29T04:46:40.223Z,8.02
2022-08-29T04:49:08.203Z,8.88
2022-08-29T04:51:37.378Z,11.48
2022-08-29T04:54:07.618Z,8.75
2022-08-29T04:56:38.147Z,9.90
2022-08-29T04:59:08.690Z,11.40
2022-08-29T05:01:36.165Z,8.90
2022-08-29T05:04:07.863Z,12.15
2022-08-29T05:06:37.196Z,9.40
2022-08-29T05:09:07.287Z,9.60
2022-08-29T05:11:34.571Z,11.20
2022-08-29T05:14:07.395Z,13.40
2022-08-29T05:16:37.416Z,13.32
2022-08-29T05:19:10.264Z,11.82
2022-08-29T05:21:41.307Z,10.27
2022-08-29T05:24:13.538Z,10.27
2022-08-29T05:26:44.909Z,12.38
2022-08-29T05:29:14.816Z,10.68
2022-08-29T05:31:44.672Z,13.85
2022-08-29T05:34:41.965Z,10.27
2022-08-29T05:37:16.474Z,11.20
2022-08-29T05:39:44.036Z,8.25
2022-08-29T05:42:23.553Z,7.97
2022-08-29T05:44:51.068Z,7.50
2022-08-29T05:47:34.006Z,9.65
2022-08-29T05:50:01.639Z,7.88
2022-08-29T05:52:29.742Z,6.97
2022-08-29T05:55:07.842Z,7.78
2022-08-29T05:57:36.003Z,8.68
2022-08-29T06:00:09.906Z,9.35
2022-08-29T06:02:40.613Z,9.30
2022-08-29T06:05:10.524Z,8.38
2022-08-29T06:07:38.932Z,10.48
2022-08-29T06:10:09.050Z,11.73
2022-08-29T06:12:39.349Z,11.27
2022-08-29T06:15:07.793Z,8.02
2022-08-29T06:17:39.446Z,8.27
2022-08-29T06:20:12.327Z,9.98
2022-08-29T06:22:40.561Z,10.40
2022-08-29T06:25:28.373Z,10.50
2022-08-29T06:27:56.919Z,11.30
2022-08-29T06:30:27.245Z,8.65
2022-08-29T06:32:56.876Z,9.55
2022-08-29T06:35:31.862Z,10.93
2022-08-29T06:37:59.166Z,15.15
2022-08-29T06:40:27.633Z,15.82
2022-08-29T06:43:07.639Z,9.75
2022-08-29T06:45:42.444Z,11.00
2022-08-29T06:48:11.200Z,12.55
2022-08-29T06:50:51.033Z,12.98
2022-08-29T06:53:31.903Z,13.40
2022-08-29T06:56:11.994Z,11.52
2022-08-29T06:58:58.515Z,14.73
2022-08-29T07:01:26.751Z,12.55
2022-08-29T07:03:57.278Z,9.80
2022-08-29T07:06:33.092Z,12.10
2022-08-29T07:09:05.018Z,13.70
2022-08-29T07:11:36.605Z,13.20
2022-08-29T07:14:13.816Z,11.20
2022-08-29T07:19:35.290Z,15.18
2022-08-29T07:22:02.994Z,11.93
2022-08-29T07:24:54.224Z,14.25
2022-08-29T07:27:30.944Z,11.88
2022-08-29T07:30:00.702Z,14.05
2022-08-29T07:32:28.227Z,15.13
2022-08-29T07:34:56.395Z,14.27
2022-08-29T07:40:18.759Z,13.38
2022-08-29T07:42:49.684Z,15.60
2022-08-29T07:45:19.997Z,14.38
2022-08-29T07:47:51.976Z,12.32
2022-08-29T07:50:19.933Z,14.10
2022-08-29T07:52:48.965Z,14.35
2022-08-29T07:55:16.222Z,17.35
2022-08-29T07:57:46.267Z,15.15
2022-08-29T08:00:14.035Z,13.48
2022-08-29T08:02:42.356Z,12.88
2022-08-29T08:05:13.108Z,11.90
2022-08-29T08:07:41.686Z,13.68
2022-08-29T08:10:12.144Z,12.20
2022-08-29T08:12:39.837Z,11.23
2022-08-29T08:15:08.672Z,12.02
2022-08-29T08:17:38.953Z,9.50
2022-08-29T08:20:11.832Z,10.32
2022-08-29T08:22:39.564Z,11.88
2022-08-29T08:25:09.159Z,11.40
2022-08-29T08:27:43.388Z,9.73
2022-08-29T08:30:13.938Z,11.25
2022-08-29T08:32:46.091Z,10.75
2022-08-29T08:35:16.393Z,10.55
2022-08-29T08:37:44.389Z,9.88
2022-08-29T08:40:23.261Z,9.70
2022-08-29T08:42:51.441Z,9.85
2022-08-29T08:45:27.059Z,9.65
2022-08-29T08:48:11.340Z,11.23
2022-08-29T08:50:56.777Z,13.10
2022-08-29T08:53:49.345Z,10.75
2022-08-29T08:56:38.198Z,11.77
2022-08-29T08:59:44.302Z,9.43
2022-08-29T09:02:57.759Z,13.20
2022-08-29T09:05:56.358Z,13.25
2022-08-29T09:08:47.467Z,10.13
2022-08-29T09:12:06.715Z,13.48
2022-08-29T09:15:11.136Z,14.07
2022-08-29T09:18:08.204Z,12.20
2022-08-29T09:20:44.204Z,9.70
2022-08-29T09:23:29.507Z,10.35
2022-08-29T09:26:04.254Z,10.95
2022-08-29T09:28:47.272Z,12.50
2022-08-29T09:31:34.323Z,10.27
2022-08-29T09:34:12.926Z,13.80
2022-08-29T09:37:03.393Z,8.48
2022-08-29T09:39:49.960Z,12.60
2022-08-29T09:42:23.829Z,8.63
2022-08-29T09:45:08.046Z,9.85
2022-08-29T09:47:43.619Z,10.90
2022-08-29T09:50:26.735Z,8.03
2022-08-29T09:53:11.338Z,10.27
2022-08-29T09:56:53.490Z,9.37
2022-08-29T09:59:55.594Z,6.55
2022-08-29T10:02:48.316Z,8.90
2022-08-29T10:05:46.903Z,10.10
2022-08-29T10:08:38.132Z,7.30
2022-08-29T10:11:41.970Z,8.35
2022-08-29T10:14:54.946Z,7.93
2022-08-29T10:18:06.768Z,7.90
2022-08-29T10:21:10.969Z,10.10
2022-08-29T10:24:09.353Z,10.45
2022-08-29T10:27:24.743Z,9.20
2022-08-29T10:30:18.033Z,7.45
2022-08-29T10:33:15.282Z,7.82
2022-08-29T10:36:09.502Z,9.82
2022-08-29T10:38:53.357Z,11.63
2022-08-29T10:41:57.949Z,8.70
2022-08-29T10:45:09.845Z,10.85
2022-08-29T10:47:54.764Z,9.45
2022-08-29T10:50:45.272Z,8.30
2022-08-29T10:53:41.021Z,7.47
2022-08-29T10:56:19.061Z,6.00
2022-08-29T10:59:20.126Z,13.05
2022-08-29T11:02:14.869Z,10.90
2022-08-29T11:11:07.558Z,10.48
2022-08-29T11:14:09.493Z,9.13
2022-08-29T11:17:17.925Z,8.32
2022-08-29T11:20:31.155Z,9.52
2022-08-29T11:23:56.027Z,7.50
2022-08-29T11:26:24.580Z,5.63
2022-08-29T11:29:24.980Z,7.47
2022-08-29T11:32:42.403Z,6.88
2022-08-29T11:35:45.723Z,8.07
2022-08-29T11:39:01.699Z,5.60
2022-08-29T11:42:09.219Z,7.53
2022-08-29T11:45:11.593Z,9.85
2022-08-29T11:48:36.752Z,7.65
2022-08-29T11:51:51.050Z,7.30
2022-08-29T11:54:29.114Z,7.18
2022-08-29T11:57:09.075Z,7.05
2022-08-29T12:00:07.948Z,6.65
2022-08-29T12:02:48.908Z,6.15
2022-08-29T12:06:41.291Z,6.60
2022-08-29T12:09:41.737Z,5.95
2022-08-29T12:12:17.629Z,6.10
2022-08-29T12:15:37.624Z,6.93
2022-08-29T12:18:26.022Z,8.43
2022-08-29T12:21:05.712Z,6.40
2022-08-29T12:24:38.947Z,5.10
2022-08-29T12:26:45.251Z,4.93
2022-08-29T12:30:16.395Z,6.72
2022-08-29T12:33:20.947Z,5.82
2022-08-29T12:36:51.907Z,4.57
2022-08-29T12:40:45.605Z,5.95
2022-08-29T12:43:54.031Z,5.22
2022-08-29T12:47:18.297Z,6.38
2022-08-29T12:50:22.865Z,5.03
2022-08-29T12:57:27.683Z,6.38
2022-08-29T12:59:59.847Z,6.43
2022-08-29T13:02:37.975Z,7.78
2022-08-29T13:05:28.227Z,7.47
2022-08-29T13:08:13.249Z,8.25
2022-08-29T13:10:54.587Z,4.90
2022-08-29T13:13:42.322Z,5.70
2022-08-29T13:16:26.571Z,5.32
2022-08-29T13:19:10.099Z,5.03
2022-08-29T13:22:10.414Z,5.40
2022-08-29T13:24:38.702Z,7.68
2022-08-29T13:27:09.654Z,7.07
2022-08-29T13:29:41.241Z,6.28
2022-08-29T13:32:24.459Z,6.22
2022-08-29T13:35:17.267Z,5.57
2022-08-29T13:38:23.984Z,4.30
2022-08-29T13:41:01.798Z,4.32
2022-08-29T13:43:42.740Z,6.40
2022-08-29T13:46:15.061Z,7.90
2022-08-29T13:48:47.433Z,6.97
2022-08-29T13:51:22.800Z,7.30
2022-08-29T13:53:53.267Z,4.60
2022-08-29T13:56:35.186Z,6.03
2022-08-29T13:59:09.080Z,5.45
2022-08-29T14:04:37.989Z,5.50
2022-08-29T14:07:26.338Z,5.03
2022-08-29T14:09:54.510Z,6.68
2022-08-29T14:12:33.363Z,6.20
2022-08-29T14:15:13.516Z,3.85
2022-08-29T14:17:42.631Z,6.22
2022-08-29T14:20:14.350Z,4.75
2022-08-29T14:22:53.012Z,3.92
2022-08-29T14:25:22.797Z,5.25
2022-08-29T14:28:00.134Z,5.28
2022-08-29T14:30:36.431Z,6.57
2022-08-29T14:33:06.251Z,3.30
2022-08-29T14:35:41.802Z,5.13
2022-08-29T14:38:13.575Z,5.28
2022-08-29T14:40:48.240Z,4.68
2022-08-29T14:43:39.647Z,4.53
2022-08-29T14:46:11.375Z,5.30
2022-08-29T14:48:38.965Z,5.78
2022-08-29T14:51:12.519Z,5.32
2022-08-29T14:53:51.741Z,7.07
2022-08-29T14:56:47.677Z,4.72
2022-08-29T14:59:27.687Z,7.00
2022-08-29T15:01:56.085Z,7.72
2022-08-29T15:04:36.359Z,5.00
2022-08-29T15:07:13.915Z,5.07
2022-08-29T15:10:00.709Z,3.80
2022-08-29T15:12:29.765Z,7.35
2022-08-29T15:14:57.914Z,6.03
2022-08-29T15:17:45.135Z,5.00
2022-08-29T15:20:36.921Z,5.82
2022-08-29T15:23:03.613Z,5.20
2022-08-29T15:25:51.680Z,5.00
2022-08-29T15:28:21.149Z,4.63
2022-08-29T15:30:48.479Z,5.32
2022-08-29T15:33:18.697Z,6.95
2022-08-29T15:35:50.996Z,5.95
2022-08-29T15:38:24.265Z,4.60
2022-08-29T15:40:51.843Z,7.03
2022-08-29T15:43:21.886Z,7.70
2022-08-29T15:45:49.409Z,6.40
2022-08-29T15:48:17.570Z,5.00
2022-08-29T15:50:45.657Z,5.45
2022-08-29T15:53:13.203Z,5.72
2022-08-29T15:55:44.557Z,7.18
2022-08-29T15:58:12.685Z,6.97
2022-08-29T16:00:40.351Z,4.75
2022-08-29T16:03:08.716Z,5.53
2022-08-29T16:05:39.243Z,5.57
2022-08-29T16:08:07.602Z,4.13
2022-08-29T16:10:38.693Z,5.10
2022-08-29T16:13:06.883Z,5.28
2022-08-29T16:15:35.179Z,6.38
2022-08-29T16:18:21.139Z,4.90
2022-08-29T16:20:48.660Z,5.65
2022-08-29T16:23:17.375Z,6.43
2022-08-29T16:25:46.489Z,6.68
2022-08-29T16:28:14.830Z,5.90
2022-08-29T16:30:44.158Z,5.38
2022-08-29T16:33:13.746Z,9.25
2022-08-29T16:35:41.161Z,7.03
2022-08-29T16:38:08.448Z,7.13
2022-08-29T16:40:35.776Z,8.77
2022-08-29T16:43:04.830Z,8.30
2022-08-29T16:45:32.988Z,5.32
2022-08-29T16:48:00.523Z,6.97
2022-08-29T16:50:29.320Z,5.60
2022-08-29T16:52:57.395Z,5.13
2022-08-29T16:55:25.713Z,8.27
2022-08-29T16:58:13.027Z,7.70
2022-08-29T17:00:41.844Z,6.22
2022-08-29T17:05:54.177Z,6.40
2022-08-29T17:08:21.273Z,5.78
2022-08-29T17:10:48.466Z,7.07
2022-08-29T17:13:15.758Z,5.78
2022-08-29T17:15:43.201Z,10.27
2022-08-29T17:18:10.362Z,7.15
2022-08-29T17:20:38.211Z,5.95
2022-08-29T17:23:09.971Z,7.05
2022-08-29T17:25:39.921Z,8.90
2022-08-29T17:30:54.320Z,7.20
2022-08-29T17:35:49.357Z,6.80
2022-08-29T17:38:17.689Z,4.82
2022-08-29T17:40:46.508Z,7.60
2022-08-29T17:43:18.464Z,8.57
2022-08-29T17:45:47.033Z,7.20
2022-08-29T17:48:16.032Z,6.68
2022-08-29T17:50:43.807Z,10.82
2022-08-29T17:53:11.248Z,8.30
2022-08-29T17:55:39.222Z,6.97
2022-08-29T17:58:07.877Z,7.25
2022-08-29T18:00:36.138Z,7.30
2022-08-29T18:03:04.461Z,7.15
2022-08-29T18:05:32.218Z,5.80
2022-08-29T18:07:59.597Z,5.95
2022-08-29T18:10:30.161Z,7.45
2022-08-29T18:12:57.709Z,6.15
2022-08-29T18:15:25.803Z,6.60
2022-08-29T18:17:53.058Z,4.97
2022-08-29T18:20:21.738Z,7.85
2022-08-29T18:22:49.960Z,9.82
2022-08-29T18:25:22.597Z,6.70
2022-08-29T18:27:51.073Z,6.43
2022-08-29T18:30:19.192Z,6.53
2022-08-29T18:32:46.467Z,9.80
2022-08-29T18:35:14.139Z,7.50
2022-08-29T18:37:41.527Z,7.70
2022-08-29T18:40:10.014Z,7.43
2022-08-29T18:42:41.034Z,7.00
2022-08-29T18:45:10.177Z,6.32
2022-08-29T18:47:38.342Z,9.32
2022-08-29T18:50:25.641Z,8.30
2022-08-29T18:52:55.026Z,8.15
2022-08-29T18:55:23.461Z,6.13
2022-08-29T18:57:51.402Z,7.33
2022-08-29T19:00:19.391Z,8.40
2022-08-29T19:02:47.113Z,5.90
2022-08-29T19:05:14.434Z,11.13
2022-08-29T19:07:42.350Z,6.47
2022-08-29T19:10:11.053Z,6.70
2022-08-29T19:12:38.915Z,7.07
2022-08-29T19:15:09.315Z,7.13
2022-08-29T19:17:38.117Z,6.35
2022-08-29T19:20:29.394Z,6.97
2022-08-29T19:22:56.798Z,5.47
2022-08-29T19:25:24.545Z,12.07
2022-08-29T19:27:52.128Z,8.60
2022-08-29T19:30:20.862Z,6.38
2022-08-29T19:32:48.148Z,8.15
2022-08-29T19:35:18.814Z,9.73
2022-08-29T19:37:46.585Z,7.47
2022-08-29T19:40:17.537Z,9.43
2022-08-29T19:43:03.677Z,7.28
2022-08-29T19:45:43.013Z,7.78
2022-08-29T19:48:14.767Z,5.93
2022-08-29T19:50:47.392Z,7.97
2022-08-29T19:53:21.492Z,9.60
2022-08-29T19:55:56.748Z,7.28
2022-08-29T19:58:31.223Z,6.55
2022-08-29T20:01:07.658Z,7.88
2022-08-29T20:03:57.084Z,5.85
2022-08-29T20:06:26.044Z,6.30
2022-08-29T20:08:54.074Z,6.35
2022-08-29T20:11:28.099Z,11.85
2022-08-29T20:13:57.893Z,11.30
2022-08-29T20:16:32.159Z,9.25
2022-08-29T20:19:02.637Z,7.32
2022-08-29T20:21:34.848Z,10.07
2022-08-29T20:24:02.881Z,8.57
2022-08-29T20:26:33.419Z,6.57
2022-08-29T20:29:04.764Z,8.82
2022-08-29T20:31:33.707Z,7.00
2022-08-29T20:34:01.625Z,10.75
2022-08-29T20:36:48.015Z,9.13
2022-08-29T20:39:20.373Z,7.53
2022-08-29T20:41:57.803Z,6.80
2022-08-29T20:44:33.752Z,6.88
2022-08-29T20:47:01.821Z,12.35
2022-08-29T20:49:29.445Z,7.65
2022-08-29T20:52:01.483Z,9.15
2022-08-29T20:54:30.116Z,7.95
2022-08-29T20:56:57.857Z,9.88
2022-08-29T20:59:26.908Z,6.35
2022-08-29T21:01:55.703Z,7.97
2022-08-29T21:07:12.927Z,10.10
2022-08-29T21:09:45.794Z,9.98
2022-08-29T21:12:15.001Z,9.57
2022-08-29T21:14:42.254Z,7.55
2022-08-29T21:17:11.864Z,6.28
2022-08-29T21:19:40.227Z,10.43
2022-08-29T21:22:12.410Z,7.73
2022-08-29T21:24:40.794Z,9.27
2022-08-29T21:27:09.584Z,7.88
2022-08-29T21:29:39.719Z,6.70
2022-08-29T21:32:07.072Z,8.55
2022-08-29T21:34:34.697Z,7.68
2022-08-29T21:37:01.989Z,8.02
2022-08-29T21:39:30.432Z,9.48
2022-08-29T21:42:02.450Z,7.05
2022-08-29T21:44:30.794Z,7.95
2022-08-29T21:46:58.289Z,7.18
2022-08-29T21:49:27.532Z,9.60
2022-08-29T21:51:54.900Z,6.35
2022-08-29T21:54:22.660Z,10.70
2022-08-29T21:56:50.348Z,8.75
2022-08-29T21:59:19.450Z,9.98
2022-08-29T22:01:52.561Z,10.95
2022-08-29T22:04:28.702Z,8.15
2022-08-29T22:06:58.205Z,9.65
2022-08-29T22:09:27.499Z,9.25
2022-08-29T22:11:55.284Z,10.10
2022-08-29T22:14:42.784Z,9.48
2022-08-29T22:17:10.152Z,7.13
2022-08-29T22:19:40.682Z,7.47
2022-08-29T22:22:09.184Z,11.43
2022-08-29T22:24:37.579Z,9.30
2022-08-29T22:27:05.647Z,9.40
2022-08-29T22:32:18.741Z,9.90
2022-08-29T22:34:46.645Z,7.93
2022-08-29T22:37:13.726Z,10.73
2022-08-29T22:39:41.189Z,8.95
2022-08-29T22:42:08.595Z,8.38
2022-08-29T22:45:02.672Z,8.18
2022-08-29T22:47:26.047Z,9.05
2022-08-29T22:49:54.773Z,10.38
2022-08-29T22:52:22.505Z,10.80
2022-08-29T22:54:49.851Z,7.85
2022-08-29T22:57:19.301Z,10.60
2022-08-29T22:59:49.367Z,9.02
2022-08-29T23:02:19.758Z,7.95
2022-08-29T23:04:50.580Z,8.23
2022-08-29T23:07:19.371Z,9.27
2022-08-29T23:09:47.216Z,9.48
2022-08-29T23:12:15.428Z,7.85
2022-08-29T23:14:49.479Z,11.20
2022-08-29T23:17:20.027Z,10.80
2022-08-29T23:19:49.363Z,8.85
2022-08-29T23:22:17.331Z,9.80
2022-08-29T23:24:53.945Z,10.90
2022-08-29T23:27:32.287Z,15.73
2022-08-29T23:30:00.962Z,10.45
2022-08-29T23:32:29.522Z,8.68
2022-08-29T23:34:57.337Z,9.57
2022-08-29T23:37:26.972Z,7.97
2022-08-29T23:39:54.512Z,8.70
2022-08-29T23:42:22.166Z,10.55
2022-08-29T23:44:49.875Z,12.73
2022-08-29T23:47:17.572Z,8.50
2022-08-29T23:49:46.073Z,9.73
2022-08-29T23:52:14.034Z,9.60
2022-08-29T23:54:41.549Z,11.10
2022-08-29T23:57:08.965Z,10.80
2022-08-29T23:59:55.412Z,12.55
